This is the latest recevied weather packets stored in our database for station/object 9W2RUT-G. If no packets are shown the sender has not sent any weather packets the latest 10 day(s).
| Time | Temp. | Humidity | Pressure | Rain* | Wind** | Luminosity | Snow |
|---|---|---|---|---|---|---|---|
| 1777912235 | 25.56° C | 30% | 1014.1 hPa | - | - | - | - |
| 1777911334 | 26.11° C | 31% | 1014.2 hPa | - | - | - | - |
| 1777910433 | 25° C | 34% | 1014.5 hPa | - | - | - | - |
| 1777909546 | 26.67° C | 32% | 1014.4 hPa | - | - | - | - |
| 1777908645 | 26.11° C | 34% | 1014.2 hPa | - | - | - | - |
| 1777907745 | 26.67° C | 32% | 1014.2 hPa | - | - | - | - |
| 1777906918 | 26.67° C | 28% | 1014 hPa | - | - | - | - |
| 1777906845 | 26.67° C | 28% | 1014 hPa | - | - | - | - |
| 1777905945 | 27.78° C | 25% | 1014 hPa | - | - | - | - |
| 1777905044 | 27.78° C | 26% | 1013.6 hPa | - | - | - | - |
| 1777904143 | 27.78° C | 26% | 1013.5 hPa | - | - | - | - |
| 1777903243 | 28.33° C | 27% | 1013.3 hPa | - | - | - | - |
| 1777902343 | 28.33° C | 27% | 1013.3 hPa | - | - | - | - |
| 1777901443 | 28.33° C | 28% | 1013.2 hPa | - | - | - | - |
| 1777900799 | 30° C | 35% | 1012.1 hPa | - | - | - | - |
| 1777900542 | 28.33° C | 28% | 1013.2 hPa | - | - | - | - |
| 1777899642 | 28.89° C | 29% | 1013.1 hPa | - | - | - | - |
| 1777898741 | 28.89° C | 30% | 1013 hPa | - | - | - | - |
| 1777897840 | 29.44° C | 31% | 1012.6 hPa | - | - | - | - |
| 1777896939 | 29.44° C | 33% | 1012.6 hPa | - | - | - | - |
| 1777896039 | 29.44° C | 34% | 1012.2 hPa | - | - | - | - |
| 1777895556 | 35° C | 44% | 1013.3 hPa | - | - | - | - |
| 1777895139 | 30° C | 35% | 1012.1 hPa | - | - | - | - |
| 1777894238 | 30.56° C | 34% | 1012.1 hPa | - | - | - | - |
| 1777893338 | 31.11° C | 31% | 1011.7 hPa | - | - | - | - |
* Rain since midnight (hover to see other rain measurements)
** Current wind speed in m/s (hover to see current wind gust speed)